Time;durP1;ratioP1;P1;durP2;ratioP2;P2;SDS_P1;SDS_P2;PMS_P1;PMS_P2;Temp;Humidity;BMP_temperature;BMP_pressure;BME280_temperature;BME280_humidity;BME280_pressure;Samples;Min_cycle;Max_cycle;Signal;HPM_P1;HPM_P2
2022/10/30 00:01:54;;;;;;;6.53;3.90;;;19.80;99.90;;;;;;5049889;28;20172;-75
2022/10/30 00:04:20;;;;;;;6.83;5.27;;;19.80;99.90;;;;;;5049977;28;20641;-74
2022/10/30 00:06:47;;;;;;;6.27;4.57;;;19.80;99.90;;;;;;5051329;28;20266;-74
2022/10/30 00:09:12;;;;;;;11.73;4.80;;;19.80;99.90;;;;;;5051301;28;20196;-75
2022/10/30 00:11:40;;;;;;;7.57;5.00;;;19.80;99.90;;;;;;5051152;28;20666;-75
2022/10/30 00:14:06;;;;;;;8.10;5.30;;;19.80;99.90;;;;;;5051040;28;20165;-74
2022/10/30 00:16:32;;;;;;;6.60;4.30;;;19.80;99.90;;;;;;5046466;28;20642;-75
2022/10/30 00:18:58;;;;;;;7.83;4.53;;;19.80;99.90;;;;;;5051018;28;20576;-74
2022/10/30 00:21:23;;;;;;;8.57;4.73;;;19.80;99.90;;;;;;5049989;28;20185;-74
2022/10/30 00:23:51;;;;;;;8.03;4.80;;;19.80;99.90;;;;;;5014805;28;20594;-74
2022/10/30 00:26:19;;;;;;;10.03;3.57;;;19.80;99.90;;;;;;4997147;28;20224;-74
2022/10/30 00:28:49;;;;;;;9.53;4.40;;;19.80;99.90;;;;;;5031163;28;21190;-75
2022/10/30 00:31:15;;;;;;;10.20;4.90;;;19.80;99.90;;;;;;5013655;28;20620;-75
2022/10/30 00:33:40;;;;;;;7.60;4.40;;;19.80;99.90;;;;;;5014712;28;20980;-75
2022/10/30 00:36:06;;;;;;;5.97;4.10;;;19.80;99.90;;;;;;5017332;28;20807;-75
2022/10/30 00:38:33;;;;;;;7.03;4.30;;;19.70;99.90;;;;;;5017060;28;20165;-75
2022/10/30 00:40:59;;;;;;;10.83;4.33;;;19.70;99.90;;;;;;5033819;28;20579;-74
2022/10/30 00:43:34;;;;;;;7.83;4.07;;;19.70;99.90;;;;;;5034566;28;20164;-75
2022/10/30 00:46:05;;;;;;;6.53;4.23;;;19.70;99.90;;;;;;5033645;28;20630;-74
2022/10/30 00:48:31;;;;;;;8.80;4.20;;;19.70;99.90;;;;;;5024100;28;20664;-75
2022/10/30 00:50:59;;;;;;;6.87;4.67;;;19.70;99.90;;;;;;5045153;28;20677;-74
2022/10/30 00:53:27;;;;;;;8.70;4.87;;;19.70;99.90;;;;;;5054401;28;20552;-75
2022/10/30 00:55:56;;;;;;;7.27;4.40;;;19.70;99.90;;;;;;5054360;28;20690;-74
2022/10/30 00:58:35;;;;;;;7.27;4.03;;;19.70;99.90;;;;;;5054595;28;20567;-75
2022/10/30 01:01:06;;;;;;;7.70;4.30;;;19.70;99.90;;;;;;5036685;28;20583;-75
2022/10/30 01:03:34;;;;;;;9.37;4.53;;;19.70;99.90;;;;;;5036490;28;20574;-75
2022/10/30 01:06:03;;;;;;;11.37;4.10;;;19.60;99.90;;;;;;5053145;28;20603;-74
2022/10/30 01:08:30;;;;;;;9.57;4.80;;;19.60;99.90;;;;;;5020062;28;20587;-74
2022/10/30 01:10:58;;;;;;;9.07;4.27;;;19.60;99.90;;;;;;5024625;28;20607;-74
2022/10/30 01:13:25;;;;;;;6.17;3.90;;;19.60;99.90;;;;;;5016257;28;20587;-75
2022/10/30 01:16:04;;;;;;;5.83;3.70;;;19.60;99.90;;;;;;5016629;28;20598;-74
2022/10/30 01:18:30;;;;;;;7.07;4.67;;;19.50;99.90;;;;;;5021233;28;20608;-74
2022/10/30 01:21:13;;;;;;;7.43;4.20;;;19.50;99.90;;;;;;5018657;28;20659;-75
2022/10/30 01:23:48;;;;;;;8.50;5.00;;;19.50;99.90;;;;;;5036109;28;20165;-75
2022/10/30 01:26:37;;;;;;;6.47;3.80;;;19.40;99.90;;;;;;5019872;28;20705;-74
2022/10/30 01:29:28;;;;;;;7.23;4.00;;;19.40;99.90;;;;;;5052821;28;20619;-74
2022/10/30 01:32:26;;;;;;;6.93;4.30;;;19.40;99.90;;;;;;5019510;28;20955;-74
2022/10/30 01:35:19;;;;;;;6.97;4.00;;;19.40;99.90;;;;;;5054001;28;20597;-75
2022/10/30 01:37:53;;;;;;;9.27;3.57;;;19.30;99.90;;;;;;5052661;28;20618;-74
2022/10/30 01:40:20;;;;;;;6.90;4.00;;;19.30;99.90;;;;;;5036000;28;20566;-74
2022/10/30 01:42:54;;;;;;;4.67;3.60;;;19.30;99.90;;;;;;5035513;28;20609;-74
2022/10/30 01:45:49;;;;;;;11.23;4.60;;;19.20;99.90;;;;;;5035396;28;20942;-74
2022/10/30 01:48:18;;;;;;;9.10;4.27;;;19.20;99.90;;;;;;5035802;28;20571;-75
2022/10/30 01:51:03;;;;;;;9.03;3.37;;;19.20;99.90;;;;;;5019905;28;20579;-74
2022/10/30 01:53:44;;;;;;;11.57;3.70;;;19.20;99.90;;;;;;5052131;28;20560;-74
2022/10/30 01:56:47;;;;;;;9.00;4.00;;;19.10;99.90;;;;;;5052565;28;21021;-74
2022/10/30 01:59:24;;;;;;;6.00;3.37;;;19.10;99.90;;;;;;5035579;28;20935;-75
2022/10/30 02:01:50;;;;;;;6.43;3.57;;;19.00;99.90;;;;;;5002458;28;20563;-75
2022/10/30 02:04:16;;;;;;;7.40;3.90;;;19.00;99.90;;;;;;5051890;28;20617;-75
2022/10/30 02:06:42;;;;;;;8.37;4.27;;;18.90;99.90;;;;;;5035330;28;20925;-74
2022/10/30 02:09:09;;;;;;;6.00;3.97;;;18.90;99.90;;;;;;5051788;28;20615;-74
2022/10/30 02:11:39;;;;;;;7.70;5.07;;;18.80;99.90;;;;;;5035151;28;20910;-75
2022/10/30 02:14:07;;;;;;;7.27;5.10;;;18.80;99.90;;;;;;5050626;28;20574;-74
2022/10/30 02:16:36;;;;;;;7.67;5.17;;;18.70;99.90;;;;;;5031833;28;20592;-74
2022/10/30 02:19:02;;;;;;;7.57;4.80;;;18.70;99.90;;;;;;5033076;28;20556;-74
2022/10/30 02:21:28;;;;;;;9.10;5.13;;;18.60;99.90;;;;;;5032849;28;20963;-74
2022/10/30 02:23:53;;;;;;;10.53;5.67;;;18.60;99.90;;;;;;5031673;28;20582;-74
2022/10/30 02:26:20;;;;;;;6.60;4.77;;;18.50;99.90;;;;;;5015182;28;20699;-74
2022/10/30 02:28:45;;;;;;;6.27;4.50;;;18.50;99.90;;;;;;5015296;28;20727;-74
2022/10/30 02:31:11;;;;;;;8.63;4.07;;;18.40;99.90;;;;;;5032027;28;20519;-74
2022/10/30 02:33:44;;;;;;;9.00;4.77;;;18.40;99.90;;;;;;5031848;28;20176;-74
2022/10/30 02:36:10;;;;;;;12.83;5.10;;;18.40;99.90;;;;;;5032766;28;20639;-75
2022/10/30 02:38:36;;;;;;;5.30;3.30;;;18.30;99.90;;;;;;5031699;28;20675;-75
2022/10/30 02:41:02;;;;;;;7.30;3.50;;;18.30;99.90;;;;;;5015159;28;20661;-75
2022/10/30 02:43:28;;;;;;;6.63;3.50;;;18.30;99.90;;;;;;5031189;28;20728;-74
2022/10/30 02:45:54;;;;;;;9.50;3.87;;;18.20;99.90;;;;;;5031377;28;20219;-75
2022/10/30 02:48:20;;;;;;;12.10;4.90;;;18.20;99.90;;;;;;5032369;28;20219;-75
2022/10/30 02:50:46;;;;;;;7.47;4.93;;;18.10;99.90;;;;;;5031379;28;20564;-75
2022/10/30 02:53:13;;;;;;;7.10;3.93;;;18.10;99.90;;;;;;5014564;28;21009;-75
2022/10/30 02:55:39;;;;;;;9.87;4.40;;;18.10;99.90;;;;;;5014376;28;20659;-75
2022/10/30 02:58:05;;;;;;;7.30;4.13;;;18.10;99.90;;;;;;5042532;28;20165;-74
2022/10/30 03:00:31;;;;;;;8.30;4.90;;;18.00;99.90;;;;;;5042701;28;20596;-74
2022/10/30 03:02:57;;;;;;;7.60;4.80;;;18.00;99.90;;;;;;5050870;28;20189;-74
2022/10/30 03:05:23;;;;;;;9.07;3.90;;;18.00;99.90;;;;;;5050966;28;20622;-74
2022/10/30 03:07:50;;;;;;;8.10;4.40;;;17.90;99.90;;;;;;5017812;28;20196;-74
2022/10/30 03:10:17;;;;;;;7.33;4.33;;;17.90;99.90;;;;;;5051984;28;20615;-74
2022/10/30 03:12:43;;;;;;;6.77;3.83;;;17.90;99.90;;;;;;5033879;28;20555;-74
2022/10/30 03:15:09;;;;;;;7.07;5.37;;;17.80;99.90;;;;;;5051934;28;20613;-74
2022/10/30 03:17:35;;;;;;;6.50;3.70;;;17.80;99.90;;;;;;5050700;28;20560;-75
2022/10/30 03:20:01;;;;;;;4.97;3.20;;;17.80;99.90;;;;;;5051847;28;20574;-74
2022/10/30 03:22:27;;;;;;;5.63;4.27;;;17.80;99.90;;;;;;5033548;28;20183;-75
2022/10/30 03:24:52;;;;;;;6.77;3.77;;;17.70;99.90;;;;;;5051943;28;20666;-75
2022/10/30 03:27:19;;;;;;;9.10;4.20;;;17.70;99.90;;;;;;5033906;28;20189;-74
2022/10/30 03:29:48;;;;;;;8.00;4.90;;;17.70;99.90;;;;;;5051772;28;20654;-74
2022/10/30 03:32:14;;;;;;;7.73;4.67;;;17.70;99.90;;;;;;5050327;28;20599;-74
2022/10/30 03:35:00;;;;;;;6.50;4.17;;;17.60;99.90;;;;;;5051372;28;20943;-74
2022/10/30 03:37:26;;;;;;;9.23;3.90;;;17.60;99.90;;;;;;5051562;28;20948;-74
2022/10/30 03:39:52;;;;;;;8.37;4.53;;;17.60;99.90;;;;;;5050574;28;20568;-75
2022/10/30 03:42:20;;;;;;;6.00;4.00;;;17.50;99.90;;;;;;5033531;28;20753;-74
2022/10/30 03:44:49;;;;;;;6.50;4.30;;;17.50;99.90;;;;;;5033848;28;20563;-75
2022/10/30 03:47:14;;;;;;;6.73;3.73;;;17.50;99.90;;;;;;5033735;28;20614;-75
2022/10/30 03:49:43;;;;;;;10.73;4.80;;;17.50;99.90;;;;;;5033719;28;20810;-74
2022/10/30 03:52:12;;;;;;;10.47;4.60;;;17.50;99.90;;;;;;5049877;28;21280;-74
2022/10/30 03:54:37;;;;;;;10.73;5.57;;;17.40;99.90;;;;;;5050359;28;20655;-74
2022/10/30 03:57:03;;;;;;;9.07;4.90;;;17.40;99.90;;;;;;5017028;28;20193;-74
2022/10/30 03:59:38;;;;;;;7.17;4.87;;;17.40;99.90;;;;;;5002006;28;20573;-75
2022/10/30 04:02:25;;;;;;;9.37;5.03;;;17.40;99.90;;;;;;5033131;28;20630;-74
2022/10/30 04:04:51;;;;;;;8.43;3.43;;;17.40;99.90;;;;;;5050257;28;20568;-74
2022/10/30 04:07:17;;;;;;;6.60;4.17;;;17.40;99.90;;;;;;5034529;28;20598;-75
2022/10/30 04:09:43;;;;;;;5.27;3.80;;;17.40;99.90;;;;;;5053969;28;20587;-74
2022/10/30 04:12:08;;;;;;;6.10;3.90;;;17.40;99.90;;;;;;5048144;28;20199;-74
2022/10/30 04:14:34;;;;;;;6.17;4.60;;;17.30;99.90;;;;;;5037552;28;20758;-74
2022/10/30 04:17:00;;;;;;;8.07;4.50;;;17.30;99.90;;;;;;5021263;28;20216;-76
2022/10/30 04:19:26;;;;;;;9.60;4.87;;;17.30;99.90;;;;;;5053950;28;20510;-74
2022/10/30 04:21:52;;;;;;;13.07;4.60;;;17.30;99.90;;;;;;5020866;28;20610;-74
2022/10/30 04:24:18;;;;;;;6.60;4.40;;;17.30;99.90;;;;;;5037165;28;20563;-74
2022/10/30 04:26:46;;;;;;;7.90;4.93;;;17.30;99.90;;;;;;5037164;28;20196;-74
2022/10/30 04:29:12;;;;;;;6.77;4.00;;;17.30;99.90;;;;;;5037260;28;21174;-74
2022/10/30 04:31:38;;;;;;;6.43;4.00;;;17.20;99.90;;;;;;5020514;28;20173;-76
2022/10/30 04:34:03;;;;;;;6.80;4.00;;;17.20;99.90;;;;;;5054922;28;20161;-76
2022/10/30 04:36:32;;;;;;;10.53;5.40;;;17.20;99.90;;;;;;5053482;28;20207;-74
2022/10/30 04:38:59;;;;;;;6.87;4.77;;;17.20;99.90;;;;;;5061946;23;20284;-77
2022/10/30 04:41:27;;;;;;;6.27;4.10;;;17.10;99.90;;;;;;5020036;28;20588;-77
2022/10/30 04:44:00;;;;;;;5.27;3.90;;;17.10;99.90;;;;;;5007577;28;21147;-77
2022/10/30 04:46:31;;;;;;;8.50;4.40;;;17.10;99.90;;;;;;4991502;28;20616;-78
2022/10/30 04:49:03;;;;;;;6.20;4.13;;;17.00;99.90;;;;;;5032857;28;20641;-78
2022/10/30 04:51:29;;;;;;;8.17;4.37;;;17.00;99.90;;;;;;4997374;28;20599;-77
2022/10/30 04:53:55;;;;;;;6.27;4.63;;;17.00;99.90;;;;;;5036079;28;20188;-77
2022/10/30 04:56:21;;;;;;;7.70;4.63;;;16.90;99.90;;;;;;5034704;28;20178;-77
2022/10/30 04:58:47;;;;;;;6.37;4.47;;;16.90;99.90;;;;;;5035701;28;20612;-77
2022/10/30 05:01:13;;;;;;;7.63;3.90;;;16.90;99.90;;;;;;5022658;28;20710;-76
2022/10/30 05:03:38;;;;;;;10.23;5.00;;;16.90;99.90;;;;;;5022322;28;20572;-77
2022/10/30 05:06:26;;;;;;;9.47;4.80;;;16.90;99.90;;;;;;5033613;28;20600;-77
2022/10/30 05:08:54;;;;;;;9.27;3.87;;;16.80;99.90;;;;;;5033028;28;20648;-78
2022/10/30 05:11:40;;;;;;;5.40;3.90;;;16.80;99.90;;;;;;5034018;28;20624;-77
2022/10/30 05:14:07;;;;;;;8.70;4.10;;;16.80;99.90;;;;;;5016503;28;20561;-77
2022/10/30 05:16:32;;;;;;;6.07;4.00;;;16.80;99.90;;;;;;5033129;28;20576;-79
2022/10/30 05:19:01;;;;;;;7.13;4.60;;;16.80;99.90;;;;;;5031978;28;20198;-77
2022/10/30 05:21:27;;;;;;;9.57;5.00;;;16.80;99.90;;;;;;5016581;28;20602;-79
2022/10/30 05:23:53;;;;;;;7.40;4.23;;;16.80;99.90;;;;;;5035745;28;20576;-76
2022/10/30 05:26:19;;;;;;;7.23;4.60;;;16.80;99.90;;;;;;5033047;28;20186;-76
2022/10/30 05:28:45;;;;;;;6.53;4.30;;;16.80;99.90;;;;;;5016470;28;20675;-76
2022/10/30 05:31:10;;;;;;;10.60;4.67;;;16.80;99.90;;;;;;5034186;28;20304;-76
2022/10/30 05:33:55;;;;;;;8.70;4.50;;;16.80;99.90;;;;;;5015997;28;20166;-76
2022/10/30 05:36:22;;;;;;;8.67;4.53;;;16.80;99.90;;;;;;5032758;28;20616;-76
2022/10/30 05:38:49;;;;;;;12.67;5.57;;;16.70;99.90;;;;;;5032425;28;20735;-77
2022/10/30 05:41:26;;;;;;;14.53;5.67;;;16.70;99.90;;;;;;5001452;28;20575;-77
2022/10/30 05:43:52;;;;;;;7.63;4.30;;;16.80;99.90;;;;;;5032404;28;20591;-77
2022/10/30 05:46:18;;;;;;;9.33;4.97;;;16.70;99.90;;;;;;5032539;28;20205;-77
2022/10/30 05:48:45;;;;;;;14.13;4.43;;;16.70;99.90;;;;;;5032367;28;20197;-77
2022/10/30 05:51:11;;;;;;;9.30;5.40;;;16.80;99.90;;;;;;5034126;28;20576;-77
2022/10/30 05:53:41;;;;;;;12.17;5.00;;;16.80;99.90;;;;;;5035238;28;20185;-78
2022/10/30 05:56:07;;;;;;;7.10;4.57;;;16.80;99.90;;;;;;5032632;28;20580;-78
2022/10/30 05:58:34;;;;;;;5.23;3.83;;;16.80;99.90;;;;;;5033182;28;20662;-78
2022/10/30 06:01:06;;;;;;;8.90;4.77;;;16.80;99.90;;;;;;5018821;28;20626;-77
2022/10/30 06:03:42;;;;;;;8.07;4.57;;;16.80;99.90;;;;;;5032301;28;20925;-77
2022/10/30 06:06:10;;;;;;;9.00;4.70;;;16.90;99.90;;;;;;5032219;28;20664;-77
2022/10/30 06:08:36;;;;;;;13.43;4.60;;;16.90;99.90;;;;;;5015855;28;20724;-78
2022/10/30 06:11:22;;;;;;;8.97;5.10;;;16.90;99.90;;;;;;5032763;28;20588;-78
2022/10/30 06:13:52;;;;;;;7.97;4.00;;;16.90;99.90;;;;;;5033145;28;20572;-78
2022/10/30 06:16:23;;;;;;;7.60;4.90;;;16.90;99.90;;;;;;5015516;28;20576;-79
2022/10/30 06:19:09;;;;;;;6.93;4.30;;;16.80;99.90;;;;;;5031905;28;20611;-77
2022/10/30 06:21:35;;;;;;;6.77;4.30;;;16.80;99.90;;;;;;4999041;28;20626;-78
2022/10/30 06:24:17;;;;;;;5.70;3.50;;;16.80;99.90;;;;;;5033024;28;20178;-79
2022/10/30 06:27:03;;;;;;;6.20;3.87;;;16.80;99.90;;;;;;5019218;28;20647;-79
2022/10/30 06:29:29;;;;;;;11.17;4.23;;;16.80;99.90;;;;;;5015173;28;21182;-78
2022/10/30 06:31:55;;;;;;;9.47;4.33;;;16.90;99.90;;;;;;5032886;28;20264;-79
2022/10/30 06:34:21;;;;;;;8.70;4.30;;;16.90;99.90;;;;;;5015127;28;20186;-78
2022/10/30 06:36:48;;;;;;;5.93;3.70;;;16.90;99.90;;;;;;4987282;28;21138;-78
2022/10/30 06:39:14;;;;;;;6.70;3.60;;;16.90;99.90;;;;;;5031598;28;21190;-78
2022/10/30 06:41:58;;;;;;;9.93;4.40;;;16.80;99.90;;;;;;5031192;28;20588;-78
2022/10/30 06:44:38;;;;;;;5.80;3.77;;;16.80;99.90;;;;;;5033042;28;20576;-78
2022/10/30 06:47:04;;;;;;;8.00;4.57;;;16.80;99.90;;;;;;5031379;28;20577;-79
2022/10/30 06:49:30;;;;;;;10.17;4.50;;;16.80;99.90;;;;;;5031113;28;20643;-78
2022/10/30 06:51:57;;;;;;;7.77;4.10;;;16.80;99.90;;;;;;5014605;28;20564;-77
2022/10/30 06:54:23;;;;;;;6.97;4.57;;;16.70;99.90;;;;;;5031382;28;20569;-77
2022/10/30 06:57:13;;;;;;;8.63;4.50;;;16.80;99.90;;;;;;5032653;28;20268;-79
2022/10/30 06:59:57;;;;;;;9.70;4.50;;;16.70;99.90;;;;;;5032509;28;20581;-78
2022/10/30 07:03:00;;;;;;;7.03;3.43;;;16.80;99.90;;;;;;5032285;28;20931;-78
2022/10/30 07:05:28;;;;;;;8.73;4.60;;;16.80;99.90;;;;;;5032692;28;20579;-79
2022/10/30 07:07:57;;;;;;;6.90;3.80;;;16.80;99.90;;;;;;5031449;28;20608;-79
2022/10/30 07:10:23;;;;;;;5.00;3.90;;;16.80;99.90;;;;;;5032506;28;20727;-79
2022/10/30 07:13:20;;;;;;;7.93;4.27;;;16.90;99.90;;;;;;5031667;28;20575;-78
2022/10/30 07:16:01;;;;;;;6.73;4.40;;;16.90;99.90;;;;;;5029806;28;20587;-80
2022/10/30 07:18:34;;;;;;;8.10;5.87;;;16.90;99.90;;;;;;4998335;28;20604;-80
2022/10/30 07:21:01;;;;;;;12.67;4.27;;;17.00;99.90;;;;;;4997240;28;20589;-79
2022/10/30 07:23:28;;;;;;;7.00;4.07;;;17.00;99.90;;;;;;5001413;28;20978;-80
2022/10/30 07:26:04;;;;;;;8.90;5.07;;;17.10;99.90;;;;;;4998294;28;20626;-79
2022/10/30 07:28:36;;;;;;;5.57;3.73;;;17.10;99.90;;;;;;5014448;28;20627;-81
2022/10/30 07:31:22;;;;;;;5.90;4.23;;;17.20;99.90;;;;;;5030984;28;20619;-81
2022/10/30 07:33:50;;;;;;;5.10;3.97;;;17.30;99.90;;;;;;5032383;28;20622;-82
2022/10/30 07:36:52;;;;;;;7.77;4.23;;;17.40;99.90;;;;;;4971705;28;20657;-80
2022/10/30 07:39:39;;;;;;;10.23;4.80;;;17.40;99.90;;;;;;5014460;28;20676;-80
2022/10/30 07:42:20;;;;;;;6.43;4.27;;;17.50;99.90;;;;;;5021572;28;21178;-80
2022/10/30 07:45:06;;;;;;;7.90;4.67;;;17.50;99.90;;;;;;5013109;28;20577;-80
2022/10/30 07:47:41;;;;;;;6.77;4.27;;;17.60;99.90;;;;;;5014442;28;20592;-81
2022/10/30 07:50:22;;;;;;;7.73;4.50;;;17.60;99.90;;;;;;5035505;28;20703;-80
2022/10/30 07:52:48;;;;;;;7.13;4.00;;;17.70;99.90;;;;;;5007880;28;20948;-81
2022/10/30 07:55:18;;;;;;;10.97;5.00;;;17.70;99.90;;;;;;5016347;28;21181;-81
2022/10/30 07:58:02;;;;;;;8.13;3.70;;;17.70;99.90;;;;;;5016724;28;21357;-80
2022/10/30 08:01:03;;;;;;;6.50;3.90;;;17.80;99.90;;;;;;4970368;28;20590;-80
2022/10/30 08:03:31;;;;;;;7.97;3.83;;;17.90;99.90;;;;;;5002188;28;21147;-81
2022/10/30 08:06:29;;;;;;;8.20;4.60;;;18.00;99.90;;;;;;5015592;28;20596;-80
2022/10/30 08:08:55;;;;;;;6.80;3.87;;;18.00;99.90;;;;;;5008536;28;20653;-80
2022/10/30 08:11:27;;;;;;;6.67;4.00;;;18.20;99.90;;;;;;5019197;28;21218;-80
2022/10/30 08:13:56;;;;;;;4.83;3.17;;;18.20;99.90;;;;;;5007407;28;20596;-81
2022/10/30 08:16:22;;;;;;;7.87;4.33;;;18.30;99.90;;;;;;5013417;28;20898;-80
2022/10/30 08:18:49;;;;;;;6.73;3.83;;;18.40;99.90;;;;;;5030077;28;20614;-81
2022/10/30 08:21:17;;;;;;;6.33;3.30;;;18.60;99.90;;;;;;5013858;28;20582;-80
2022/10/30 08:23:55;;;;;;;15.37;7.57;;;18.70;99.90;;;;;;5029987;28;20595;-79
2022/10/30 08:26:22;;;;;;;7.57;3.53;;;18.90;99.90;;;;;;5014009;28;20564;-80
2022/10/30 08:28:47;;;;;;;6.20;4.00;;;19.00;99.90;;;;;;5018632;28;20724;-79
2022/10/30 08:31:15;;;;;;;7.63;4.40;;;19.10;99.90;;;;;;5030062;28;20224;-79
2022/10/30 08:34:12;;;;;;;4.53;3.20;;;19.20;99.90;;;;;;4981012;28;20596;-80
2022/10/30 08:36:50;;;;;;;10.20;5.07;;;19.30;99.90;;;;;;5013689;28;20654;-80
2022/10/30 08:39:17;;;;;;;7.60;4.10;;;19.50;99.90;;;;;;5013457;28;20634;-80
2022/10/30 08:41:50;;;;;;;6.87;4.50;;;19.80;99.90;;;;;;5015464;28;20659;-81
2022/10/30 08:44:17;;;;;;;9.33;4.70;;;20.20;99.90;;;;;;4998544;28;21217;-81
2022/10/30 08:47:03;;;;;;;8.47;4.00;;;20.60;99.90;;;;;;5015010;28;20585;-81
2022/10/30 08:49:30;;;;;;;8.90;4.10;;;20.90;99.90;;;;;;5016431;28;20639;-83
2022/10/30 08:51:58;;;;;;;7.70;3.57;;;21.20;99.90;;;;;;5021411;28;20606;-82
2022/10/30 08:54:25;;;;;;;6.30;3.90;;;21.50;99.90;;;;;;5023339;28;20591;-79
2022/10/30 08:56:51;;;;;;;5.83;3.53;;;21.80;99.90;;;;;;5034113;28;20583;-80
2022/10/30 08:59:17;;;;;;;8.20;5.07;;;22.10;99.90;;;;;;5035493;28;21194;-81
2022/10/30 09:01:44;;;;;;;7.00;3.77;;;22.30;99.90;;;;;;5021530;28;20181;-80
2022/10/30 09:04:30;;;;;;;18.23;6.00;;;22.40;99.90;;;;;;4989572;28;20615;-80
2022/10/30 09:07:05;;;;;;;6.17;3.13;;;22.70;99.90;;;;;;5017498;28;21026;-81
2022/10/30 09:09:54;;;;;;;5.87;2.97;;;23.00;99.90;;;;;;4997110;28;20656;-80
2022/10/30 09:12:23;;;;;;;8.80;4.00;;;23.60;99.90;;;;;;5016615;28;20572;-80
2022/10/30 09:14:49;;;;;;;5.67;3.70;;;23.90;99.90;;;;;;5033457;28;20584;-80
2022/10/30 09:17:15;;;;;;;7.97;3.80;;;24.10;99.90;;;;;;5034653;28;20572;-80
2022/10/30 09:19:43;;;;;;;6.23;2.90;;;24.30;99.90;;;;;;5033481;28;20239;-79
2022/10/30 09:22:13;;;;;;;5.13;3.00;;;24.70;99.90;;;;;;5022935;28;21199;-80
2022/10/30 09:24:41;;;;;;;5.43;3.23;;;25.30;99.90;;;;;;4997025;28;20730;-80
2022/10/30 09:27:29;;;;;;;9.30;3.63;;;25.80;99.90;;;;;;5019984;28;20673;-80
2022/10/30 09:29:57;;;;;;;8.13;3.47;;;26.40;99.90;;;;;;5023109;28;20627;-80
2022/10/30 09:32:28;;;;;;;5.90;3.30;;;26.60;99.90;;;;;;5024348;28;20587;-79
2022/10/30 09:35:14;;;;;;;6.20;3.80;;;26.80;99.90;;;;;;5040286;28;20643;-80
2022/10/30 09:37:42;;;;;;;4.20;3.10;;;26.80;99.90;;;;;;5029984;28;20576;-79
2022/10/30 09:40:23;;;;;;;7.37;3.17;;;26.90;99.90;;;;;;5034222;28;21147;-79
2022/10/30 09:42:50;;;;;;;9.03;4.67;;;26.80;98.00;;;;;;5018646;28;20686;-79
2022/10/30 09:45:51;;;;;;;7.63;3.97;;;26.70;99.80;;;;;;5031552;28;20607;-84
2022/10/30 09:48:50;;;;;;;7.13;2.80;;;26.70;99.40;;;;;;5004960;28;20656;-79
2022/10/30 09:51:44;;;;;;;6.73;3.73;;;26.80;95.70;;;;;;5004343;28;20627;-81
2022/10/30 09:54:42;;;;;;;7.07;3.27;;;26.90;99.60;;;;;;5031275;28;20646;-80
2022/10/30 09:57:28;;;;;;;5.70;3.80;;;27.20;99.40;;;;;;5016837;28;20573;-80
2022/10/30 10:00:09;;;;;;;8.13;3.63;;;27.30;98.50;;;;;;5015947;28;20669;-80
2022/10/30 10:02:51;;;;;;;6.90;3.23;;;27.30;98.70;;;;;;5034369;28;20564;-82
2022/10/30 10:05:27;;;;;;;4.27;2.87;;;27.40;98.60;;;;;;5015737;28;20637;-78
2022/10/30 10:08:06;;;;;;;6.23;3.63;;;27.60;98.90;;;;;;5012127;28;20622;-79
2022/10/30 10:10:56;;;;;;;6.07;3.37;;;27.80;98.80;;;;;;5019349;28;20638;-80
2022/10/30 10:13:29;;;;;;;5.70;3.50;;;28.10;98.20;;;;;;5033787;28;20652;-81
2022/10/30 10:16:01;;;;;;;8.60;4.13;;;28.20;97.60;;;;;;5037995;28;20572;-80
2022/10/30 10:18:36;;;;;;;7.43;2.80;;;28.30;95.90;;;;;;5057894;28;20590;-83
2022/10/30 10:21:12;;;;;;;6.03;3.40;;;28.30;95.10;;;;;;5032797;28;20586;-79
2022/10/30 10:23:49;;;;;;;5.27;2.80;;;28.10;94.00;;;;;;5028241;28;20949;-80
2022/10/30 10:26:50;;;;;;;7.70;4.33;;;27.90;94.30;;;;;;5033520;28;20579;-80
2022/10/30 10:29:36;;;;;;;5.40;3.30;;;27.60;93.30;;;;;;5028362;28;20665;-80
2022/10/30 10:32:34;;;;;;;5.60;2.43;;;27.30;93.80;;;;;;5032841;28;21123;-80
2022/10/30 10:35:34;;;;;;;8.60;3.00;;;27.20;94.30;;;;;;5009411;28;20589;-80
2022/10/30 10:38:28;;;;;;;4.80;2.77;;;26.90;93.20;;;;;;5061238;28;21015;-79
2022/10/30 10:41:27;;;;;;;5.27;2.90;;;26.80;94.00;;;;;;5052962;28;20587;-79
2022/10/30 10:44:19;;;;;;;5.50;2.80;;;26.80;94.40;;;;;;5052577;28;20611;-78
2022/10/30 10:47:09;;;;;;;4.80;2.80;;;26.80;94.50;;;;;;5034735;28;21153;-79
2022/10/30 10:49:47;;;;;;;5.60;2.33;;;26.80;94.30;;;;;;5033506;28;20668;-79
2022/10/30 10:52:20;;;;;;;5.97;3.10;;;26.80;94.00;;;;;;5052214;28;20571;-79
2022/10/30 10:54:54;;;;;;;7.97;4.23;;;26.60;93.70;;;;;;5035236;28;21200;-78
2022/10/30 10:57:32;;;;;;;7.10;2.93;;;26.40;93.60;;;;;;5055983;28;20927;-79
2022/10/30 11:00:04;;;;;;;6.33;3.20;;;26.20;93.30;;;;;;5052533;28;20571;-78
2022/10/30 11:02:33;;;;;;;4.70;2.33;;;26.00;93.20;;;;;;5051857;28;20622;-78
2022/10/30 11:05:31;;;;;;;6.63;3.43;;;25.80;93.50;;;;;;5050879;28;20582;-77
2022/10/30 11:08:15;;;;;;;7.37;3.10;;;25.40;92.70;;;;;;5024516;28;20662;-77
2022/10/30 11:10:41;;;;;;;7.33;3.50;;;25.10;93.10;;;;;;5051975;28;21060;-77
2022/10/30 11:13:12;;;;;;;6.93;3.50;;;24.90;93.60;;;;;;5034383;28;20610;-77
2022/10/30 11:15:58;;;;;;;6.67;2.57;;;24.70;93.80;;;;;;5052000;28;20599;-77
2022/10/30 11:18:24;;;;;;;12.87;6.30;;;24.50;94.20;;;;;;5050063;28;20607;-78
2022/10/30 11:21:33;;;;;;;7.50;3.40;;;24.40;94.50;;;;;;5034085;28;20625;-77
2022/10/30 11:23:58;;;;;;;5.53;2.77;;;24.40;95.00;;;;;;5007146;28;20181;-77
2022/10/30 11:26:28;;;;;;;7.23;2.33;;;24.40;95.40;;;;;;5033885;28;20963;-77
2022/10/30 11:29:13;;;;;;;4.50;2.50;;;24.40;95.50;;;;;;5050631;28;20196;-77
2022/10/30 11:31:43;;;;;;;9.17;3.00;;;24.30;95.70;;;;;;5052009;28;20565;-77
2022/10/30 11:34:17;;;;;;;10.53;3.23;;;24.30;95.90;;;;;;5058489;28;20570;-79
2022/10/30 11:36:47;;;;;;;5.83;3.70;;;24.20;95.90;;;;;;5050376;28;21130;-77
2022/10/30 11:39:19;;;;;;;6.43;3.00;;;24.20;96.00;;;;;;5051288;28;20603;-77
2022/10/30 11:41:57;;;;;;;6.70;3.23;;;24.20;95.90;;;;;;5051296;28;20570;-77
2022/10/30 11:44:50;;;;;;;6.33;2.87;;;24.20;96.20;;;;;;5033403;28;20574;-76
2022/10/30 11:47:26;;;;;;;6.53;3.00;;;24.20;96.50;;;;;;5048186;28;20627;-76
2022/10/30 11:49:55;;;;;;;7.00;3.50;;;24.20;96.30;;;;;;5016883;28;20634;-77
2022/10/30 11:52:24;;;;;;;5.60;2.57;;;24.20;96.30;;;;;;5016855;28;20572;-76
2022/10/30 11:54:53;;;;;;;7.50;3.83;;;24.20;96.30;;;;;;5050224;28;20570;-78
2022/10/30 11:57:32;;;;;;;6.20;2.80;;;24.20;96.40;;;;;;5033612;28;20935;-78
2022/10/30 11:59:58;;;;;;;9.80;3.07;;;24.20;96.40;;;;;;5050238;28;20671;-78
2022/10/30 12:02:28;;;;;;;9.20;4.20;;;24.10;96.30;;;;;;5051023;28;20674;-78
2022/10/30 12:05:00;;;;;;;8.63;3.03;;;24.20;96.30;;;;;;5050338;28;20583;-78
2022/10/30 12:07:31;;;;;;;4.20;2.50;;;24.20;96.40;;;;;;5051568;28;20572;-78
2022/10/30 12:09:58;;;;;;;9.13;3.20;;;24.10;96.50;;;;;;5038477;28;20654;-78
2022/10/30 12:12:35;;;;;;;5.37;2.80;;;24.20;96.60;;;;;;5050917;28;20599;-78
2022/10/30 12:15:13;;;;;;;7.20;3.47;;;24.20;96.70;;;;;;5050177;28;20931;-78
2022/10/30 12:17:40;;;;;;;8.73;2.87;;;24.30;96.90;;;;;;5033305;28;21160;-77
2022/10/30 12:20:12;;;;;;;9.07;3.17;;;24.30;96.90;;;;;;5050047;28;20671;-78
2022/10/30 12:22:38;;;;;;;3.93;2.40;;;24.30;96.70;;;;;;5033006;28;20945;-78
2022/10/30 12:25:23;;;;;;;7.20;3.30;;;24.30;96.50;;;;;;5020853;28;20604;-77
2022/10/30 12:27:56;;;;;;;6.10;2.43;;;24.30;96.40;;;;;;5016379;28;20217;-77
2022/10/30 12:30:22;;;;;;;5.33;3.17;;;24.30;96.40;;;;;;5035067;28;20628;-78
2022/10/30 12:32:57;;;;;;;6.03;2.63;;;24.30;96.40;;;;;;5034724;28;20588;-78
2022/10/30 12:35:41;;;;;;;8.00;2.80;;;24.30;96.50;;;;;;5033760;28;20921;-78
2022/10/30 12:38:41;;;;;;;5.33;2.40;;;24.40;96.60;;;;;;5035137;28;21237;-78
2022/10/30 12:41:15;;;;;;;6.30;2.60;;;24.40;96.50;;;;;;5033799;28;20690;-78
2022/10/30 12:43:46;;;;;;;5.17;2.20;;;24.50;96.50;;;;;;5034742;28;20579;-78
2022/10/30 12:46:49;;;;;;;7.53;2.60;;;24.50;96.40;;;;;;5044379;28;20548;-78
2022/10/30 12:49:28;;;;;;;8.40;2.57;;;24.50;96.50;;;;;;5034978;28;20965;-78
2022/10/30 12:52:24;;;;;;;7.23;2.67;;;24.50;96.50;;;;;;5017078;28;20966;-78
2022/10/30 12:55:19;;;;;;;9.90;3.20;;;24.50;96.40;;;;;;5026379;28;20593;-78
2022/10/30 12:58:26;;;;;;;4.13;2.67;;;24.60;96.60;;;;;;5034718;28;20572;-78
2022/10/30 13:00:57;;;;;;;5.80;2.73;;;24.60;96.60;;;;;;5022284;28;20596;-78
2022/10/30 13:03:31;;;;;;;6.20;2.67;;;24.70;96.30;;;;;;5016589;28;20586;-78
2022/10/30 13:06:21;;;;;;;3.63;2.40;;;24.70;96.40;;;;;;5033574;28;20600;-78
2022/10/30 13:09:26;;;;;;;7.33;2.80;;;24.80;96.50;;;;;;5033970;28;21057;-78
2022/10/30 13:12:32;;;;;;;7.60;3.20;;;24.90;96.70;;;;;;4934676;29;21081;-78
2022/10/30 13:15:26;;;;;;;6.80;2.60;;;24.90;95.60;;;;;;4994840;28;20596;-78
2022/10/30 13:17:54;;;;;;;6.47;2.70;;;24.90;95.40;;;;;;5016459;28;20596;-78
2022/10/30 13:20:21;;;;;;;8.20;4.30;;;25.00;95.70;;;;;;5033335;28;20599;-77